Time;durP1;ratioP1;P1;durP2;ratioP2;P2;SDS_P1;SDS_P2;PMS_P1;PMS_P2;Temp;Humidity;BMP_temperature;BMP_pressure;BME280_temperature;BME280_humidity;BME280_pressure;Samples;Min_cycle;Max_cycle;Signal;HPM_P1;HPM_P2
2022/06/17 00:02:21;;;;;;;5.13;3.20;;;11.70;99.90;11.00;100619;;;;587346;240;24085;-74
2022/06/17 00:04:49;;;;;;;5.53;3.63;;;11.70;99.90;11.00;100624;;;;582036;240;34977;-73
2022/06/17 00:07:17;;;;;;;4.37;3.20;;;11.70;99.90;10.90;100621;;;;587165;240;24043;-74
2022/06/17 00:09:45;;;;;;;4.83;2.93;;;11.60;99.90;10.90;100635;;;;587135;240;24011;-76
2022/06/17 00:12:14;;;;;;;3.63;2.90;;;11.60;99.90;10.90;100627;;;;587105;240;24039;-76
2022/06/17 00:17:27;;;;;;;3.93;2.50;;;11.50;99.90;10.80;100630;;;;587701;240;24111;-76
2022/06/17 00:19:55;;;;;;;4.40;3.37;;;11.50;99.90;10.80;100641;;;;587149;240;24043;-76
2022/06/17 00:22:27;;;;;;;7.93;3.13;;;11.50;99.90;10.80;100634;;;;586939;240;24032;-76
2022/06/17 00:24:55;;;;;;;4.27;2.90;;;11.50;99.90;10.80;100633;;;;582489;240;24112;-78
2022/06/17 00:27:19;;;;;;;4.83;2.53;;;11.50;99.90;10.80;100636;;;;586675;240;24051;-73
2022/06/17 00:29:48;;;;;;;5.03;2.97;;;11.50;99.90;10.80;100638;;;;583974;240;24096;-76
2022/06/17 00:32:16;;;;;;;3.00;2.20;;;11.50;99.90;10.90;100635;;;;586942;240;24062;-74
2022/06/17 00:34:43;;;;;;;5.07;2.97;;;11.50;99.90;10.90;100645;;;;584156;240;24119;-79
2022/06/17 00:37:12;;;;;;;6.60;2.97;;;11.50;99.90;10.90;100636;;;;587251;240;24105;-78
2022/06/17 00:39:40;;;;;;;3.47;3.17;;;11.50;99.90;10.80;100641;;;;587861;240;24026;-75
2022/06/17 00:42:08;;;;;;;3.17;2.87;;;11.50;99.90;10.80;100643;;;;587638;240;24051;-78
2022/06/17 00:44:39;;;;;;;7.47;2.70;;;11.50;99.90;10.80;100646;;;;587746;240;24036;-74
2022/06/17 00:47:34;;;;;;;7.43;2.70;;;11.50;99.90;10.80;100645;;;;586915;240;24039;-78
2022/06/17 00:50:02;;;;;;;4.70;2.73;;;11.40;99.90;10.70;100645;;;;587700;240;24056;-78
2022/06/17 00:52:42;;;;;;;4.07;3.17;;;11.40;99.90;10.70;100647;;;;587183;240;24053;-79
2022/06/17 00:55:21;;;;;;;4.57;4.17;;;11.40;99.90;10.70;100644;;;;586510;240;45847;-78
2022/06/17 00:57:49;;;;;;;6.27;4.00;;;11.40;99.90;10.70;100643;;;;587366;240;24025;-76
2022/06/17 01:00:17;;;;;;;3.10;2.83;;;11.40;99.90;10.80;100648;;;;587320;240;24068;-77
2022/06/17 01:02:48;;;;;;;5.27;2.70;;;11.40;99.90;10.80;100653;;;;587053;240;24047;-76
2022/06/17 01:05:16;;;;;;;7.20;3.30;;;11.50;99.90;10.80;100653;;;;587129;240;24081;-76
2022/06/17 01:07:50;;;;;;;3.33;2.87;;;11.50;99.90;10.90;100657;;;;587323;240;24060;-77
2022/06/17 01:10:19;;;;;;;4.97;3.03;;;11.50;99.90;10.90;100652;;;;584931;240;24088;-76
2022/06/17 01:12:56;;;;;;;3.73;2.93;;;11.50;99.90;10.80;100654;;;;587318;240;24086;-74
2022/06/17 01:15:23;;;;;;;3.63;2.77;;;11.50;99.90;10.90;100650;;;;594392;240;24062;-79
2022/06/17 01:17:52;;;;;;;6.70;4.80;;;11.50;99.90;10.80;100654;;;;581993;240;34946;-77
2022/06/17 01:20:19;;;;;;;8.53;3.80;;;11.50;99.90;10.80;100649;;;;586959;240;24038;-74
2022/06/17 01:22:50;;;;;;;5.17;3.53;;;11.50;99.90;10.80;100656;;;;587078;240;24100;-80
2022/06/17 01:25:27;;;;;;;6.37;3.30;;;11.50;99.90;10.80;100649;;;;586944;240;24093;-79
2022/06/17 01:28:01;;;;;;;2.87;2.67;;;11.50;99.90;10.80;100658;;;;587174;240;24028;-76
2022/06/17 01:30:37;;;;;;;8.00;2.93;;;11.50;99.90;10.80;100662;;;;595793;240;24059;-74
2022/06/17 01:33:05;;;;;;;4.43;2.93;;;11.50;99.90;10.80;100661;;;;583893;240;24134;-77
2022/06/17 01:35:51;;;;;;;6.80;4.67;;;11.50;99.90;10.80;100657;;;;581769;240;34950;-76
2022/06/17 01:38:19;;;;;;;6.17;3.60;;;11.40;99.90;10.70;100659;;;;587311;240;24052;-75
2022/06/17 01:40:50;;;;;;;4.00;3.60;;;11.40;99.90;10.70;100659;;;;587267;240;25145;-73
2022/06/17 01:43:15;;;;;;;7.63;3.70;;;11.40;99.90;10.70;100653;;;;586831;240;24107;-74
2022/06/17 01:45:48;;;;;;;4.60;3.43;;;11.40;99.90;10.70;100651;;;;576283;245;24078;-73
2022/06/17 01:48:16;;;;;;;3.73;3.20;;;11.40;99.90;10.70;100656;;;;587297;240;24041;-75
2022/06/17 01:50:44;;;;;;;5.70;3.73;;;11.40;99.90;10.70;100658;;;;576609;243;24094;-72
2022/06/17 01:53:12;;;;;;;4.63;3.73;;;11.40;99.90;10.70;100659;;;;577535;244;24064;-76
2022/06/17 01:55:43;;;;;;;6.37;3.43;;;11.40;99.90;10.70;100660;;;;577260;245;24067;-73
2022/06/17 01:58:26;;;;;;;5.70;3.53;;;11.40;99.90;10.70;100670;;;;576549;245;24056;-74
2022/06/17 02:00:57;;;;;;;7.17;3.47;;;11.40;99.90;10.70;100657;;;;587533;240;24083;-73
2022/06/17 02:03:28;;;;;;;6.50;3.83;;;11.30;99.90;10.70;100659;;;;574451;246;24070;-75
2022/06/17 02:05:52;;;;;;;8.57;3.47;;;11.40;99.90;10.70;100657;;;;584958;241;24064;-76
2022/06/17 02:08:20;;;;;;;5.73;3.20;;;11.40;99.90;10.70;100663;;;;582785;242;24049;-79
2022/06/17 02:10:51;;;;;;;7.37;3.37;;;11.30;99.90;10.60;100662;;;;581118;243;24036;-80
2022/06/17 02:13:16;;;;;;;8.50;3.53;;;11.30;99.90;10.60;100660;;;;578796;245;24086;-79
2022/06/17 02:15:44;;;;;;;8.17;4.03;;;11.30;99.90;10.60;100663;;;;576549;245;24120;-80
2022/06/17 02:18:12;;;;;;;5.00;4.33;;;11.30;99.90;10.70;100664;;;;576601;245;24088;-79
2022/06/17 02:20:40;;;;;;;7.17;3.47;;;11.30;99.90;10.70;100665;;;;576332;245;24067;-74
2022/06/17 02:23:08;;;;;;;5.37;3.47;;;11.30;99.90;10.70;100661;;;;576644;245;24101;-74
2022/06/17 02:25:46;;;;;;;8.40;3.40;;;11.30;99.90;10.70;100670;;;;587220;240;24103;-75
2022/06/17 02:28:13;;;;;;;4.93;3.47;;;11.30;99.90;10.70;100663;;;;576649;244;24080;-75
2022/06/17 02:30:41;;;;;;;11.73;4.83;;;11.40;99.90;10.70;100657;;;;586878;240;24038;-74
2022/06/17 02:33:12;;;;;;;6.77;4.03;;;11.40;99.90;10.70;100655;;;;576337;245;24092;-76
2022/06/17 02:35:58;;;;;;;5.13;3.40;;;11.40;99.90;10.70;100658;;;;584447;245;24135;-74
2022/06/17 02:38:26;;;;;;;14.93;4.53;;;11.40;99.90;10.70;100654;;;;587327;240;24139;-74
2022/06/17 02:40:57;;;;;;;4.70;3.77;;;11.40;99.90;10.70;100653;;;;576691;245;24155;-73
2022/06/17 02:43:28;;;;;;;9.60;3.87;;;11.40;99.90;10.80;100656;;;;576582;245;24157;-79
2022/06/17 02:45:56;;;;;;;4.00;3.50;;;11.40;99.90;10.80;100661;;;;576281;245;24098;-77
2022/06/17 02:48:24;;;;;;;4.63;3.63;;;11.50;99.90;10.80;100655;;;;576032;245;24058;-75
2022/06/17 02:50:52;;;;;;;10.00;4.20;;;11.50;99.90;10.90;100653;;;;576107;245;24070;-79
2022/06/17 02:53:20;;;;;;;7.47;3.90;;;11.50;99.90;10.90;100653;;;;586811;240;24032;-77
2022/06/17 02:55:48;;;;;;;6.03;4.03;;;11.60;99.90;10.90;100655;;;;576130;245;24091;-76
2022/06/17 02:58:31;;;;;;;10.07;4.17;;;11.60;99.90;11.00;100657;;;;586880;240;24069;-76
2022/06/17 03:00:59;;;;;;;4.47;4.07;;;11.70;99.90;11.00;100650;;;;573397;246;24109;-75
2022/06/17 03:03:26;;;;;;;8.53;4.03;;;11.70;99.90;11.10;100648;;;;585641;241;24133;-77
2022/06/17 03:05:54;;;;;;;9.30;6.17;;;11.80;99.90;11.20;100646;;;;571997;244;35194;-77
2022/06/17 03:08:29;;;;;;;7.67;4.87;;;11.80;99.90;11.20;100640;;;;587890;240;24111;-74
2022/06/17 03:10:56;;;;;;;8.17;5.00;;;12.00;99.90;11.30;100655;;;;575318;245;24083;-76
2022/06/17 03:13:24;;;;;;;6.27;4.10;;;12.00;99.90;11.80;100641;;;;585165;241;24114;-80
2022/06/17 03:15:52;;;;;;;6.50;4.70;;;12.40;99.90;12.60;100647;;;;582423;242;24104;-79
2022/06/17 03:18:20;;;;;;;5.97;3.77;;;13.10;99.90;13.40;100653;;;;581099;243;24069;-80
2022/06/17 03:20:48;;;;;;;5.03;3.67;;;13.80;99.90;14.10;100658;;;;579121;245;24013;-80
2022/06/17 03:23:25;;;;;;;11.40;3.90;;;14.60;99.90;14.80;100656;;;;587423;240;24056;-80
2022/06/17 03:25:59;;;;;;;7.53;3.73;;;16.00;99.90;15.40;100655;;;;581964;240;24060;-78
2022/06/17 03:28:46;;;;;;;6.67;3.40;;;16.00;99.90;16.20;100658;;;;580690;243;24098;-77
2022/06/17 03:31:13;;;;;;;7.53;3.50;;;16.70;99.90;16.80;100655;;;;579279;243;24056;-79
2022/06/17 03:33:45;;;;;;;5.93;3.00;;;18.00;99.90;17.40;100653;;;;578767;243;24055;-79
2022/06/17 03:36:18;;;;;;;3.37;2.70;;;18.00;99.90;17.90;100655;;;;579244;243;24159;-79
2022/06/17 03:38:52;;;;;;;5.67;2.90;;;18.60;99.90;18.40;100658;;;;587881;242;26320;-81
2022/06/17 03:41:38;;;;;;;2.57;2.37;;;19.20;99.90;18.90;100655;;;;577104;248;24174;-79
2022/06/17 03:44:06;;;;;;;3.33;2.67;;;19.60;99.90;19.40;100659;;;;577557;243;24060;-79
2022/06/17 03:46:34;;;;;;;4.97;2.97;;;20.20;99.90;20.00;100657;;;;567456;249;24106;-77
2022/06/17 03:49:08;;;;;;;4.03;2.63;;;20.80;99.90;20.60;100661;;;;566670;249;24157;-81
2022/06/17 03:51:36;;;;;;;4.17;2.17;;;21.30;99.90;21.20;100659;;;;567348;249;24087;-80
2022/06/17 03:54:04;;;;;;;5.27;2.87;;;21.90;99.90;21.80;100666;;;;567589;249;24134;-80
2022/06/17 03:56:32;;;;;;;2.90;2.70;;;22.50;99.90;22.20;100675;;;;567588;249;24126;-78
2022/06/17 03:59:00;;;;;;;5.30;2.80;;;23.00;99.90;22.60;100674;;;;567512;249;24095;-78
2022/06/17 04:01:33;;;;;;;4.40;2.53;;;23.50;99.90;23.00;100678;;;;569290;243;23080;-80
2022/06/17 04:04:01;;;;;;;2.50;2.30;;;23.90;99.90;23.60;100671;;;;578902;244;24032;-81
2022/06/17 04:06:29;;;;;;;5.10;3.07;;;24.40;99.90;23.90;100684;;;;579500;244;24073;-81
2022/06/17 04:09:06;;;;;;;5.03;2.20;;;24.80;99.90;24.40;100686;;;;581223;242;24069;-78
2022/06/17 04:11:34;;;;;;;3.57;2.73;;;25.40;99.20;24.90;100682;;;;567590;249;23100;-82
2022/06/17 04:14:02;;;;;;;3.70;2.30;;;25.80;97.60;25.60;100688;;;;573206;246;23101;-81
2022/06/17 04:16:52;;;;;;;3.90;2.50;;;26.40;94.90;26.00;100683;;;;574144;246;24085;-81
2022/06/17 04:19:23;;;;;;;4.47;2.10;;;26.90;93.10;26.80;100699;;;;571816;246;24180;-82
2022/06/17 04:21:47;;;;;;;2.57;2.03;;;28.00;86.80;27.10;100696;;;;566616;246;23072;-81
2022/06/17 04:24:18;;;;;;;5.27;2.20;;;28.00;86.70;27.10;100697;;;;573532;244;24126;-81
2022/06/17 04:26:46;;;;;;;4.87;2.20;;;28.20;84.20;27.60;100699;;;;573366;246;23119;-81
2022/06/17 04:29:23;;;;;;;8.30;2.25;;;28.60;81.80;28.00;100702;;;;573379;246;23123;-73
2022/06/17 04:31:51;;;;;;;7.20;2.80;;;29.20;79.30;28.60;100700;;;;572992;246;23091;-74
2022/06/17 04:34:18;;;;;;;5.00;2.42;;;29.70;77.60;29.40;100702;;;;572217;246;24098;-74
2022/06/17 04:37:03;;;;;;;4.60;2.12;;;30.40;72.60;29.60;100705;;;;573178;246;23112;-74
2022/06/17 04:39:29;;;;;;;3.97;2.00;;;30.70;70.70;30.00;100706;;;;582045;246;23099;-74
2022/06/17 04:41:58;;;;;;;10.63;2.87;;;31.20;69.00;30.30;100708;;;;572671;246;23086;-76
2022/06/17 04:44:26;;;;;;;5.50;2.17;;;31.90;65.10;30.70;100702;;;;572683;246;23082;-74
2022/06/17 04:46:59;;;;;;;3.17;2.03;;;31.80;65.10;31.10;100710;;;;578149;242;23042;-76
2022/06/17 04:49:27;;;;;;;1.90;1.77;;;32.20;63.30;31.30;100714;;;;583095;242;24109;-78
2022/06/17 04:52:02;;;;;;;3.37;2.10;;;32.80;61.10;31.50;100715;;;;582821;242;23080;-77
2022/06/17 04:54:30;;;;;;;2.65;1.62;;;32.70;61.00;32.10;100712;;;;572491;247;23080;-76
2022/06/17 04:56:59;;;;;;;5.28;1.85;;;33.90;58.20;32.80;100718;;;;572449;247;23093;-76
2022/06/17 04:59:35;;;;;;;6.05;1.92;;;33.90;58.20;33.20;100718;;;;576374;242;24126;-76
2022/06/17 05:02:03;;;;;;;4.12;2.05;;;34.40;56.90;33.80;100722;;;;582867;242;23091;-76
2022/06/17 05:04:31;;;;;;;2.35;1.58;;;35.00;55.90;34.40;100728;;;;583058;242;23047;-76
2022/06/17 05:06:59;;;;;;;11.82;1.90;;;35.50;54.20;34.70;100730;;;;592072;241;23075;-75
2022/06/17 05:09:37;;;;;;;1.85;1.65;;;36.00;53.30;34.80;100726;;;;592196;241;23042;-77
2022/06/17 05:12:06;;;;;;;4.28;1.92;;;36.10;52.20;35.00;100723;;;;582849;242;24138;-77
2022/06/17 05:14:40;;;;;;;4.07;2.12;;;36.10;52.00;35.50;100730;;;;590309;242;24082;-75
2022/06/17 05:17:08;;;;;;;2.17;1.87;;;36.60;50.80;35.70;100728;;;;577247;247;23097;-80
2022/06/17 05:19:36;;;;;;;4.57;2.12;;;36.80;50.10;36.00;100726;;;;577579;242;23060;-81
2022/06/17 05:22:04;;;;;;;3.58;2.55;;;37.10;49.70;36.40;100730;;;;583086;242;24055;-80
2022/06/17 05:24:35;;;;;;;6.75;2.05;;;37.50;49.00;36.80;100733;;;;582910;242;23044;-77
2022/06/17 05:26:59;;;;;;;4.43;2.10;;;37.80;48.70;36.90;100734;;;;584160;242;23087;-75
2022/06/17 05:29:27;;;;;;;3.25;1.70;;;37.90;47.90;37.30;100734;;;;584190;242;24099;-75
2022/06/17 05:31:55;;;;;;;9.55;2.30;;;38.20;47.80;37.80;100737;;;;583944;242;23036;-76
2022/06/17 05:34:24;;;;;;;1.92;1.77;;;39.10;46.30;38.20;100742;;;;583857;242;24104;-75
2022/06/17 05:36:52;;;;;;;4.18;1.62;;;39.30;46.00;38.40;100738;;;;583766;242;23062;-74
2022/06/17 05:39:21;;;;;;;4.57;2.00;;;39.80;45.10;39.00;100738;;;;578660;242;34904;-77
2022/06/17 05:41:49;;;;;;;2.37;1.73;;;39.80;45.10;39.30;100743;;;;583601;242;23055;-74
2022/06/17 05:44:17;;;;;;;4.87;1.85;;;40.20;44.80;40.00;100744;;;;577426;242;23032;-78
2022/06/17 05:46:47;;;;;;;2.87;1.70;;;40.80;43.90;40.40;100751;;;;583671;242;23096;-76
2022/06/17 05:49:13;;;;;;;2.47;1.70;;;41.10;43.40;40.60;100753;;;;577476;242;23070;-78
2022/06/17 05:51:41;;;;;;;4.65;2.03;;;41.40;42.90;40.70;100755;;;;577593;242;23146;-77
2022/06/17 05:54:12;;;;;;;2.28;1.95;;;41.50;42.70;41.00;100758;;;;571784;244;23097;-78
2022/06/17 05:56:37;;;;;;;1.40;1.30;;;41.80;42.00;41.40;100759;;;;576081;242;23103;-80
2022/06/17 05:59:04;;;;;;;3.35;1.70;;;42.10;41.90;42.00;100760;;;;583128;242;23051;-77
2022/06/17 06:01:32;;;;;;;3.22;1.50;;;42.50;41.30;42.20;100757;;;;582632;242;23071;-75
2022/06/17 06:04:00;;;;;;;1.87;1.70;;;42.90;40.50;42.40;100758;;;;582861;242;23095;-75
2022/06/17 06:06:28;;;;;;;2.72;1.67;;;42.90;40.50;42.40;100760;;;;579738;242;24093;-79
2022/06/17 06:08:56;;;;;;;2.70;1.55;;;43.10;40.10;42.30;100759;;;;582671;242;23068;-75
2022/06/17 06:11:24;;;;;;;4.55;1.60;;;42.90;40.80;42.30;100764;;;;582760;242;23038;-75
2022/06/17 06:13:53;;;;;;;3.70;1.80;;;43.10;40.80;42.60;100770;;;;582817;242;24091;-78
2022/06/17 06:16:21;;;;;;;2.15;1.70;;;43.50;39.60;43.10;100767;;;;579153;242;23103;-80
2022/06/17 06:18:52;;;;;;;1.83;1.60;;;43.50;39.60;43.70;100765;;;;582219;242;23086;-80
2022/06/17 06:21:17;;;;;;;3.92;2.03;;;44.00;39.20;44.20;100766;;;;582181;242;24107;-75
2022/06/17 06:23:45;;;;;;;4.85;2.15;;;44.50;38.80;44.90;100770;;;;579123;242;23067;-78
2022/06/17 06:26:13;;;;;;;2.78;1.80;;;45.10;38.30;45.60;100771;;;;582668;242;23065;-74
2022/06/17 06:28:41;;;;;;;3.58;1.58;;;45.90;37.50;45.80;100772;;;;582082;242;24119;-74
2022/06/17 06:31:21;;;;;;;3.08;1.60;;;46.30;36.60;45.90;100774;;;;582589;242;23049;-75
2022/06/17 06:33:49;;;;;;;1.62;1.52;;;46.40;36.80;46.20;100769;;;;591030;242;23052;-79
2022/06/17 06:36:16;;;;;;;3.50;1.52;;;46.60;36.30;46.40;100776;;;;591626;242;23151;-76
2022/06/17 06:38:44;;;;;;;3.35;1.80;;;46.80;36.00;46.70;100777;;;;583793;242;24119;-74
2022/06/17 06:41:12;;;;;;;4.07;1.67;;;47.10;36.10;47.20;100777;;;;584431;242;23059;-75
2022/06/17 06:43:41;;;;;;;2.22;1.42;;;47.80;35.10;47.60;100789;;;;583308;242;23144;-75
2022/06/17 06:46:10;;;;;;;4.57;1.33;;;48.30;34.60;48.10;100780;;;;583483;239;22984;-76
2022/06/17 06:48:38;;;;;;;4.12;1.55;;;48.70;34.40;48.30;100781;;;;586867;243;23038;-74
2022/06/17 06:51:06;;;;;;;2.87;1.65;;;48.60;34.30;48.60;100793;;;;579855;243;23074;-75
2022/06/17 06:53:34;;;;;;;1.75;1.55;;;49.00;34.10;48.60;100795;;;;580957;243;23109;-78
2022/06/17 06:56:03;;;;;;;5.40;1.95;;;49.00;33.50;48.70;100789;;;;587571;237;23051;-75
2022/06/17 06:58:30;;;;;;;3.50;1.80;;;49.10;33.50;48.50;100801;;;;577288;243;23131;-73
2022/06/17 07:00:58;;;;;;;5.15;1.77;;;49.00;33.60;48.70;100797;;;;590266;239;23036;-77
2022/06/17 07:03:26;;;;;;;5.37;1.75;;;49.10;33.50;48.60;100798;;;;572745;248;24138;-81
2022/06/17 07:05:54;;;;;;;4.50;2.00;;;48.90;33.40;48.40;100800;;;;567554;249;24132;-80
2022/06/17 07:08:22;;;;;;;3.12;1.45;;;48.70;33.70;48.30;100806;;;;576033;249;23124;-77
2022/06/17 07:10:50;;;;;;;2.87;1.65;;;48.60;33.70;48.70;100806;;;;567743;249;23090;-81
2022/06/17 07:13:21;;;;;;;3.22;1.52;;;48.80;33.20;49.20;100813;;;;574673;244;22975;-80
2022/06/17 07:15:49;;;;;;;2.22;1.60;;;49.30;32.90;49.30;100812;;;;578033;242;34948;-81
2022/06/17 07:18:16;;;;;;;1.90;1.70;;;49.50;32.70;49.50;100812;;;;583614;242;23041;-80
2022/06/17 07:20:44;;;;;;;4.20;2.00;;;49.70;32.70;49.80;100817;;;;583346;242;23077;-81
2022/06/17 07:23:15;;;;;;;3.67;1.70;;;49.80;32.50;49.90;100819;;;;583591;242;23129;-81
2022/06/17 07:25:46;;;;;;;4.45;1.60;;;50.20;31.80;49.90;100823;;;;587343;239;23077;-79
2022/06/17 07:28:14;;;;;;;2.40;1.62;;;50.20;31.80;50.00;100828;;;;590028;239;23107;-80
2022/06/17 07:30:46;;;;;;;2.80;1.70;;;50.00;31.70;49.60;100843;;;;590168;239;23063;-80
2022/06/17 07:33:15;;;;;;;2.90;1.37;;;49.60;32.30;49.40;100829;;;;587704;242;24134;-78
2022/06/17 07:35:43;;;;;;;3.12;1.80;;;49.60;32.40;49.50;100838;;;;582314;242;23090;-80
2022/06/17 07:41:06;;;;;;;3.20;1.50;;;49.50;31.70;48.90;100845;;;;585110;239;23091;-78
2022/06/17 07:43:37;;;;;;;2.20;1.60;;;49.10;31.70;48.40;100844;;;;571873;244;35068;-79
2022/06/17 07:46:02;;;;;;;1.20;1.10;;;48.70;31.80;48.30;100845;;;;575538;242;23077;-80
2022/06/17 07:48:30;;;;;;;1.65;1.50;;;48.50;32.40;48.80;100843;;;;582648;241;23144;-82
2022/06/17 07:51:01;;;;;;;1.42;1.33;;;48.90;31.80;49.20;100838;;;;579408;244;23144;-75
2022/06/17 07:53:32;;;;;;;3.22;1.77;;;49.20;31.40;49.60;100845;;;;584656;239;34873;-81
2022/06/17 07:55:56;;;;;;;3.55;1.30;;;49.80;31.60;49.90;100844;;;;584370;240;23051;-80
2022/06/17 07:58:27;;;;;;;1.40;1.33;;;50.10;31.30;49.70;100837;;;;581555;239;23017;-81
2022/06/17 08:00:53;;;;;;;1.48;1.37;;;50.20;31.20;50.10;100836;;;;587839;243;24091;-80
2022/06/17 08:03:21;;;;;;;1.48;1.37;;;50.20;31.10;50.40;100846;;;;569229;247;23143;-81
2022/06/17 08:05:49;;;;;;;6.50;1.60;;;50.50;31.20;49.80;100834;;;;569126;247;23072;-80
2022/06/17 08:08:26;;;;;;;2.15;1.60;;;50.20;30.80;50.00;100857;;;;571728;247;23146;-83
2022/06/17 08:10:44;;;;;;;2.22;1.60;;;50.30;31.40;50.40;100856;;;;567990;248;24143;-82
2022/06/17 08:13:12;;;;;;;2.40;1.70;;;50.60;31.20;50.80;100858;;;;580663;246;23102;-83
2022/06/17 08:15:40;;;;;;;5.07;1.58;;;51.00;30.50;51.40;100855;;;;566083;247;23059;-80
2022/06/17 08:18:08;;;;;;;1.83;1.40;;;51.60;30.30;51.80;100865;;;;565980;247;23067;-77
2022/06/17 08:20:37;;;;;;;3.53;1.25;;;50.90;30.00;49.50;100860;;;;571780;247;23118;-74
2022/06/17 08:23:05;;;;;;;1.87;1.62;;;50.80;29.90;46.40;100872;;;;571595;247;23117;-79
2022/06/17 08:25:33;;;;;;;5.60;1.77;;;48.40;31.20;43.30;100873;;;;571590;247;23151;-78
2022/06/17 08:28:03;;;;;;;3.90;1.80;;;45.50;32.80;40.90;100873;;;;571325;247;24280;-81
2022/06/17 08:30:34;;;;;;;2.35;1.50;;;42.70;35.30;39.20;100865;;;;568765;246;23090;-80
2022/06/17 08:33:05;;;;;;;4.85;1.33;;;40.50;37.60;40.80;100868;;;;571520;247;23057;-73
2022/06/17 08:35:30;;;;;;;5.70;1.42;;;40.70;38.80;42.00;100867;;;;568566;248;24186;-82
2022/06/17 08:38:10;;;;;;;4.97;1.87;;;41.80;37.50;40.30;100877;;;;579969;247;23111;-81
2022/06/17 08:40:38;;;;;;;7.03;2.03;;;39.20;38.80;38.00;100876;;;;580945;247;23076;-82
2022/06/17 08:43:46;;;;;;;2.15;1.40;;;39.10;38.70;36.50;100877;;;;569126;247;24112;-81
2022/06/17 08:46:32;;;;;;;6.18;2.10;;;37.50;40.40;35.20;100877;;;;581408;247;23097;-75
2022/06/17 08:49:39;;;;;;;1.90;1.48;;;35.80;42.40;33.60;100878;;;;571994;247;23101;-76
2022/06/17 08:52:10;;;;;;;1.40;1.10;;;34.40;44.60;32.20;100875;;;;572067;247;23073;-76
2022/06/17 08:55:12;;;;;;;1.58;1.35;;;32.90;45.70;32.10;100874;;;;570913;248;23098;-74
2022/06/17 08:58:06;;;;;;;2.80;1.40;;;34.60;45.10;34.90;100871;;;;561633;248;35198;-75
2022/06/17 09:01:15;;;;;;;3.50;1.20;;;36.40;42.90;36.40;100870;;;;569209;247;23157;-72
2022/06/17 09:03:46;;;;;;;2.90;1.23;;;36.30;42.80;37.10;100879;;;;575720;243;23160;-75
2022/06/17 09:06:44;;;;;;;1.10;1.10;;;37.50;41.20;37.70;100883;;;;586951;239;23089;-72
2022/06/17 09:09:30;;;;;;;2.67;1.20;;;37.90;41.40;39.80;100874;;;;573974;242;24067;-72
2022/06/17 09:12:01;;;;;;;3.97;1.20;;;39.90;39.20;40.60;100873;;;;590371;239;23043;-75
2022/06/17 09:14:40;;;;;;;4.25;1.40;;;40.90;37.70;41.20;100873;;;;582657;242;23044;-75
2022/06/17 09:17:59;;;;;;;1.23;1.20;;;43.10;36.30;43.00;100868;;;;579199;243;23076;-75
2022/06/17 09:20:35;;;;;;;1.35;1.25;;;43.00;36.20;45.10;100871;;;;579246;243;23108;-74
2022/06/17 09:23:08;;;;;;;2.47;2.05;;;44.70;34.10;43.20;100870;;;;579137;243;23070;-75
2022/06/17 09:25:44;;;;;;;1.52;1.40;;;44.70;34.00;41.20;100888;;;;589620;239;23113;-74
2022/06/17 09:28:23;;;;;;;4.78;1.95;;;43.00;34.90;38.70;100886;;;;590012;239;23038;-74
2022/06/17 09:30:54;;;;;;;3.65;1.42;;;40.60;36.80;36.70;100884;;;;582861;242;23058;-75
2022/06/17 09:33:22;;;;;;;3.00;1.40;;;38.20;39.10;36.20;100885;;;;589732;239;23062;-74
2022/06/17 09:35:52;;;;;;;1.37;1.17;;;37.10;41.30;36.10;100883;;;;580768;247;23128;-77
2022/06/17 09:38:38;;;;;;;3.33;1.10;;;36.70;40.90;35.60;100885;;;;567180;249;23104;-75
2022/06/17 09:41:08;;;;;;;2.83;1.37;;;36.10;41.40;34.50;100881;;;;567169;249;23122;-76
2022/06/17 09:43:48;;;;;;;4.22;1.40;;;35.30;42.50;33.10;100883;;;;575484;249;23172;-77
2022/06/17 09:46:37;;;;;;;2.17;1.33;;;34.00;44.30;32.00;100882;;;;567176;249;23163;-75
2022/06/17 09:49:23;;;;;;;2.40;1.40;;;32.80;46.20;30.80;100878;;;;568503;249;23110;-75
2022/06/17 09:52:06;;;;;;;2.03;1.42;;;30.60;49.80;29.90;100887;;;;578986;244;24154;-75
2022/06/17 09:54:53;;;;;;;1.83;1.30;;;30.50;49.80;29.10;100888;;;;568703;248;23116;-74
2022/06/17 09:57:29;;;;;;;2.35;1.42;;;29.70;51.30;28.50;100888;;;;546026;259;23225;-75
2022/06/17 10:00:01;;;;;;;2.80;1.20;;;29.00;52.20;28.00;100889;;;;577225;244;24158;-78
2022/06/17 10:02:49;;;;;;;7.50;1.40;;;28.40;53.30;27.70;100887;;;;578476;244;24120;-78
2022/06/17 10:05:48;;;;;;;2.00;1.40;;;27.80;54.90;27.50;100893;;;;570982;248;24173;-78
2022/06/17 10:08:28;;;;;;;2.27;1.40;;;27.70;54.80;27.40;100889;;;;576115;237;24045;-86
2022/06/17 10:11:13;;;;;;;1.60;1.40;;;27.60;55.40;28.10;100888;;;;595304;237;23045;-88
2022/06/17 10:14:09;;;;;;;2.13;1.20;;;28.30;55.10;28.50;100883;;;;600471;232;23031;-88
2022/06/17 10:19:43;;;;;;;4.00;1.27;;;28.90;53.60;28.20;100892;;;;608468;232;23026;-88
2022/06/17 10:22:35;;;;;;;2.20;1.00;;;28.60;52.80;27.90;100896;;;;607329;232;24033;-88
2022/06/17 10:25:54;;;;;;;1.87;1.20;;;28.30;53.40;27.50;100895;;;;606018;232;23022;-89
2022/06/17 10:28:55;;;;;;;2.53;1.43;;;28.00;54.50;27.10;100899;;;;607823;232;23019;-89
2022/06/17 10:31:32;;;;;;;1.90;1.13;;;27.50;55.90;27.10;100907;;;;608016;233;24044;-87
2022/06/17 10:34:00;;;;;;;1.93;1.10;;;27.40;56.60;26.90;100906;;;;607468;233;23018;-87
2022/06/17 10:36:31;;;;;;;2.63;1.90;;;27.30;56.80;26.60;100907;;;;607606;233;23020;-86
2022/06/17 10:38:59;;;;;;;2.57;1.30;;;27.10;56.80;26.30;100904;;;;607592;233;23030;-88
2022/06/17 10:41:27;;;;;;;4.37;1.30;;;26.80;56.50;26.20;100901;;;;607595;233;23019;-88
2022/06/17 10:43:55;;;;;;;3.60;1.67;;;26.60;57.30;26.30;100908;;;;607323;233;24074;-89
2022/06/17 10:46:23;;;;;;;2.07;1.80;;;26.60;57.80;26.30;100901;;;;606979;233;24031;-88
2022/06/17 10:49:15;;;;;;;3.17;1.40;;;26.60;59.10;26.20;100902;;;;616327;228;23050;-87
2022/06/17 10:51:40;;;;;;;3.93;1.30;;;26.60;59.10;26.20;100897;;;;602008;235;23037;-89
2022/06/17 10:54:27;;;;;;;2.97;1.50;;;26.60;58.70;26.30;100896;;;;602407;235;24010;-89
2022/06/17 10:57:07;;;;;;;1.67;1.40;;;26.60;58.70;26.40;100891;;;;601951;235;24040;-88
2022/06/17 10:59:41;;;;;;;2.37;1.50;;;26.70;58.80;26.40;100909;;;;602088;235;24066;-89
2022/06/17 11:02:12;;;;;;;3.27;1.10;;;26.70;58.90;26.30;100904;;;;602371;235;23017;-88
2022/06/17 11:04:39;;;;;;;1.70;1.27;;;26.70;58.90;26.10;100911;;;;599281;235;24031;-88
2022/06/17 11:07:07;;;;;;;1.93;1.00;;;26.50;58.30;25.90;100907;;;;601637;235;23014;-87
2022/06/17 11:09:35;;;;;;;2.00;1.10;;;26.30;58.70;25.70;100911;;;;601614;235;24067;-87
2022/06/17 11:12:10;;;;;;;0.93;0.93;;;26.20;59.00;25.60;100893;;;;601744;235;23082;-85
2022/06/17 11:14:45;;;;;;;1.97;1.33;;;26.00;59.10;25.60;100899;;;;601801;235;23032;-86
2022/06/17 11:17:44;;;;;;;5.33;1.60;;;26.00;59.80;25.70;100900;;;;602112;235;23049;-88
2022/06/17 11:20:17;;;;;;;2.00;1.20;;;26.00;59.70;25.80;100902;;;;602298;235;24015;-87
2022/06/17 11:22:56;;;;;;;1.57;1.20;;;26.20;59.50;26.10;100899;;;;602535;235;23026;-87
2022/06/17 11:25:31;;;;;;;1.60;1.07;;;26.40;58.30;26.20;100898;;;;603768;234;23036;-88
2022/06/17 11:28:18;;;;;;;3.67;1.10;;;26.50;58.00;26.50;100902;;;;602925;234;24118;-85
2022/06/17 11:30:57;;;;;;;1.33;1.20;;;26.90;58.70;26.90;100903;;;;603424;234;24013;-89
2022/06/17 11:33:32;;;;;;;1.50;1.20;;;27.30;58.20;27.20;100909;;;;603014;234;23095;-90
2022/06/17 11:36:21;;;;;;;1.80;1.23;;;27.80;56.60;27.40;100909;;;;596258;237;24118;-88
2022/06/17 11:38:46;;;;;;;3.73;1.43;;;27.80;56.60;27.40;100912;;;;602081;234;23022;-86
2022/06/17 11:41:31;;;;;;;1.73;1.20;;;27.90;56.30;27.40;100897;;;;591754;238;23053;-87
2022/06/17 11:44:17;;;;;;;2.33;1.43;;;27.90;56.80;27.30;100901;;;;593614;239;24102;-87